createdAt,value
2018-01-14T00:00:36.981Z,-2.39
2018-01-14T00:01:36.948Z,-2.39
2018-01-14T00:02:36.939Z,-2.4
2018-01-14T00:03:36.928Z,-2.43
2018-01-14T00:04:37.159Z,-2.37
2018-01-14T00:05:36.888Z,-2.43
2018-01-14T00:06:36.864Z,-2.34
2018-01-14T00:07:37.112Z,-2.32
2018-01-14T00:08:37.079Z,-2.36
2018-01-14T00:09:36.822Z,-2.27
2018-01-14T00:10:36.771Z,-2.28
2018-01-14T00:11:36.751Z,-2.23
2018-01-14T00:12:37.007Z,-2.23
2018-01-14T00:13:36.979Z,-2.24
2018-01-14T00:14:36.967Z,-2.25
2018-01-14T00:15:36.940Z,-2.24
2018-01-14T00:16:36.944Z,-2.25
2018-01-14T00:17:36.633Z,-2.2
2018-01-14T00:18:36.622Z,-2.18
2018-01-14T00:19:36.589Z,-2.21
2018-01-14T00:20:36.852Z,-2.15
2018-01-14T00:21:36.824Z,-2.18
2018-01-14T00:22:36.811Z,-2.18
2018-01-14T00:23:36.786Z,-2.2
2018-01-14T00:24:36.494Z,-2.1
2018-01-14T00:25:36.475Z,-2.17
2018-01-14T00:26:36.768Z,-2.07
2018-01-14T00:27:36.814Z,-2.12
2018-01-14T00:28:36.475Z,-2.12
2018-01-14T00:29:36.700Z,-2.07
2018-01-14T00:30:36.651Z,-2.03
2018-01-14T00:31:36.899Z,-2.02
2018-01-14T00:32:36.602Z,-1.96
2018-01-14T00:33:36.318Z,-1.99
2018-01-14T00:34:36.562Z,-2.06
2018-01-14T00:35:36.275Z,-1.97
2018-01-14T00:36:36.524Z,-1.91
2018-01-14T00:37:36.506Z,-1.96
2018-01-14T00:38:36.214Z,-1.92
2018-01-14T00:39:36.465Z,-1.89
2018-01-14T00:40:36.443Z,-1.92
2018-01-14T00:41:36.448Z,-2
2018-01-14T00:42:36.406Z,-1.96
2018-01-14T00:43:36.384Z,-1.96
2018-01-14T00:44:36.385Z,-1.97
2018-01-14T00:45:36.079Z,-2.06
2018-01-14T00:46:36.328Z,-1.96
2018-01-14T00:47:36.037Z,-1.97
2018-01-14T00:48:36.293Z,-1.99
2018-01-14T00:49:36.266Z,-1.94
2018-01-14T00:50:36.318Z,-2
2018-01-14T00:51:36.229Z,-2
2018-01-14T00:52:36.210Z,-1.97
2018-01-14T00:53:35.941Z,-1.88
2018-01-14T00:54:36.445Z,-1.96
2018-01-14T00:55:35.879Z,-2.02
2018-01-14T00:56:36.195Z,-1.96
2018-01-14T00:57:35.842Z,-2.06
2018-01-14T00:58:36.106Z,-1.94
2018-01-14T00:59:36.070Z,-2.06
2018-01-14T01:00:36.053Z,-2.06
2018-01-14T01:01:36.032Z,-1.89
2018-01-14T01:02:35.763Z,-1.96
2018-01-14T01:03:35.995Z,-2.02
2018-01-14T01:04:35.724Z,-1.96
2018-01-14T01:05:35.994Z,-1.91
2018-01-14T01:06:35.678Z,-2
2018-01-14T01:07:35.928Z,-1.91
2018-01-14T01:08:35.624Z,-1.86
2018-01-14T01:09:35.604Z,-1.86
2018-01-14T01:10:35.586Z,-1.92
2018-01-14T01:11:36.123Z,-1.99
2018-01-14T01:12:35.569Z,-1.86
2018-01-14T01:13:35.797Z,-1.96
2018-01-14T01:14:35.776Z,-1.89
2018-01-14T01:15:36.030Z,-1.89
2018-01-14T01:16:36.012Z,-1.82
2018-01-14T01:17:35.449Z,-1.82
2018-01-14T01:18:35.740Z,-1.84
2018-01-14T01:19:35.961Z,-1.84
2018-01-14T01:20:35.678Z,-1.82
2018-01-14T01:21:35.370Z,-1.86
2018-01-14T01:22:35.358Z,-1.76
2018-01-14T01:23:35.604Z,-1.82
2018-01-14T01:24:35.587Z,-1.78
2018-01-14T01:25:35.578Z,-1.86
2018-01-14T01:26:35.549Z,-1.84
2018-01-14T01:27:35.253Z,-1.76
2018-01-14T01:28:35.236Z,-1.86
2018-01-14T01:29:35.235Z,-1.81
2018-01-14T01:30:35.197Z,-1.85
2018-01-14T01:31:35.199Z,-1.81
2018-01-14T01:32:35.432Z,-1.84
2018-01-14T01:33:35.136Z,-1.67
2018-01-14T01:34:35.393Z,-1.73
2018-01-14T01:35:35.635Z,-1.68
2018-01-14T01:36:35.075Z,-1.73
2018-01-14T01:37:35.078Z,-1.68
2018-01-14T01:38:35.308Z,-1.7
2018-01-14T01:39:35.296Z,-1.66
2018-01-14T01:40:35.000Z,-1.67
2018-01-14T01:41:34.981Z,-1.7
2018-01-14T01:42:35.506Z,-1.74
2018-01-14T01:43:34.940Z,-1.73
2018-01-14T01:44:35.192Z,-1.73
2018-01-14T01:45:35.175Z,-1.73
2018-01-14T01:46:35.152Z,-1.82
2018-01-14T01:47:34.865Z,-1.78
2018-01-14T01:48:35.381Z,-1.81
2018-01-14T01:49:35.103Z,-1.73
2018-01-14T01:50:35.091Z,-1.86
2018-01-14T01:51:34.785Z,-1.84
2018-01-14T01:52:35.035Z,-1.79
2018-01-14T01:53:34.747Z,-1.79
2018-01-14T01:54:34.746Z,-1.84
2018-01-14T01:55:34.705Z,-1.88
2018-01-14T01:56:34.689Z,-1.82
2018-01-14T01:57:34.958Z,-1.85
2018-01-14T01:58:34.918Z,-1.84
2018-01-14T01:59:34.904Z,-1.81
2018-01-14T02:00:34.880Z,-1.84
2018-01-14T02:01:34.874Z,-1.82
2018-01-14T02:02:34.845Z,-1.68
2018-01-14T02:03:34.548Z,-1.67
2018-01-14T02:04:34.533Z,-1.7
2018-01-14T02:05:34.510Z,-1.66
2018-01-14T02:06:34.490Z,-1.55
2018-01-14T02:07:34.475Z,-1.6
2018-01-14T02:08:34.742Z,-1.56
2018-01-14T02:09:34.435Z,-1.5
2018-01-14T02:10:34.683Z,-1.45
2018-01-14T02:11:34.671Z,-1.48
2018-01-14T02:12:34.645Z,-1.46
2018-01-14T02:13:34.643Z,-1.43
2018-01-14T02:14:34.604Z,-1.28
2018-01-14T02:15:34.318Z,-1.31
2018-01-14T02:16:34.300Z,-1.25
2018-01-14T02:17:34.558Z,-1.21
2018-01-14T02:18:34.312Z,-1.19
2018-01-14T02:19:34.785Z,-1.21
2018-01-14T02:20:34.490Z,-1.06
2018-01-14T02:21:34.490Z,-1.11
2018-01-14T02:22:34.449Z,-1.14
2018-01-14T02:23:34.436Z,-1.14
2018-01-14T02:24:34.412Z,-1.07
2018-01-14T02:25:34.146Z,-1.01
2018-01-14T02:26:34.658Z,-0.93
2018-01-14T02:27:34.084Z,-0.99
2018-01-14T02:28:34.365Z,-0.98
2018-01-14T02:29:34.324Z,-0.89
2018-01-14T02:30:34.026Z,-0.87
2018-01-14T02:31:34.287Z,-0.85
2018-01-14T02:32:33.986Z,-0.89
2018-01-14T02:33:34.237Z,-0.92
2018-01-14T02:34:33.949Z,-0.76
2018-01-14T02:35:34.197Z,-0.92
2018-01-14T02:36:33.909Z,-0.82
2018-01-14T02:37:34.185Z,-0.82
2018-01-14T02:38:33.871Z,-0.8
2018-01-14T02:39:33.853Z,-0.79
2018-01-14T02:40:34.404Z,-0.7
2018-01-14T02:41:34.084Z,-0.8
2018-01-14T02:42:33.795Z,-0.66
2018-01-14T02:43:33.795Z,-0.72
2018-01-14T02:44:34.027Z,-0.7
2018-01-14T02:45:33.738Z,-0.73
2018-01-14T02:46:33.991Z,-0.66
2018-01-14T02:47:34.249Z,-0.66
2018-01-14T02:48:33.954Z,-0.67
2018-01-14T02:49:33.673Z,-0.66
2018-01-14T02:50:34.184Z,-0.67
2018-01-14T02:51:33.914Z,-0.69
2018-01-14T02:52:33.604Z,-0.62
2018-01-14T02:53:33.587Z,-0.62
2018-01-14T02:54:34.108Z,-0.7
2018-01-14T02:55:33.839Z,-0.64
2018-01-14T02:56:33.535Z,-0.66
2018-01-14T02:57:33.792Z,-0.62
2018-01-14T02:58:33.489Z,-0.69
2018-01-14T02:59:33.740Z,-0.56
2018-01-14T03:00:34.006Z,-0.7
2018-01-14T03:01:33.433Z,-0.62
2018-01-14T03:02:33.413Z,-0.66
2018-01-14T03:03:33.398Z,-0.64
2018-01-14T03:04:33.403Z,-0.73
2018-01-14T03:05:33.646Z,-0.67
2018-01-14T03:06:33.611Z,-0.54
2018-01-14T03:07:33.605Z,-0.59
2018-01-14T03:08:33.571Z,-0.59
2018-01-14T03:09:33.554Z,-0.52
2018-01-14T03:10:33.261Z,-0.67
2018-01-14T03:11:33.539Z,-0.56
2018-01-14T03:12:33.491Z,-0.56
2018-01-14T03:13:33.478Z,-0.54
2018-01-14T03:14:33.480Z,-0.52
2018-01-14T03:15:33.185Z,-0.54
2018-01-14T03:16:33.149Z,-0.51
2018-01-14T03:17:33.128Z,-0.51
2018-01-14T03:18:33.404Z,-0.48
2018-01-14T03:19:33.364Z,-0.38
2018-01-14T03:20:33.612Z,-0.43
2018-01-14T03:21:33.053Z,-0.49
2018-01-14T03:22:33.050Z,-0.51
2018-01-14T03:23:33.019Z,-0.48
2018-01-14T03:24:33.038Z,-0.48
2018-01-14T03:25:32.982Z,-0.52
2018-01-14T03:26:33.500Z,-0.48
2018-01-14T03:27:32.941Z,-0.4
2018-01-14T03:28:33.194Z,-0.49
2018-01-14T03:29:32.915Z,-0.46
2018-01-14T03:30:33.432Z,-0.38
2018-01-14T03:31:33.412Z,-0.4
2018-01-14T03:32:33.130Z,-0.4
2018-01-14T03:33:32.829Z,-0.37
2018-01-14T03:34:33.082Z,-0.38
2018-01-14T03:35:33.061Z,-0.38
2018-01-14T03:36:33.045Z,-0.34
2018-01-14T03:37:33.302Z,-0.41
2018-01-14T03:38:33.008Z,-0.28
2018-01-14T03:39:32.988Z,-0.34
2018-01-14T03:40:32.971Z,-0.38
2018-01-14T03:41:32.681Z,-0.38
2018-01-14T03:42:32.934Z,-0.36
2018-01-14T03:43:32.649Z,-0.34
2018-01-14T03:44:32.894Z,-0.36
2018-01-14T03:45:32.878Z,-0.33
2018-01-14T03:46:32.885Z,-0.36
2018-01-14T03:47:32.567Z,-0.34
2018-01-14T03:48:32.548Z,-0.31
2018-01-14T03:49:32.529Z,-0.33
2018-01-14T03:50:32.511Z,-0.37
2018-01-14T03:51:32.781Z,-0.33
2018-01-14T03:52:32.472Z,-0.31
2018-01-14T03:53:32.721Z,-0.3
2018-01-14T03:54:32.434Z,-0.31
2018-01-14T03:55:32.978Z,-0.28
2018-01-14T03:56:32.935Z,-0.31
2018-01-14T03:57:32.668Z,-0.33
2018-01-14T03:58:32.363Z,-0.33
2018-01-14T03:59:32.341Z,-0.34
2018-01-14T04:00:32.873Z,-0.33
2018-01-14T04:01:32.576Z,-0.31
2018-01-14T04:02:32.836Z,-0.3
2018-01-14T04:03:32.811Z,-0.31
2018-01-14T04:04:32.786Z,-0.34
2018-01-14T04:05:32.242Z,-0.31
2018-01-14T04:06:32.480Z,-0.23
2018-01-14T04:07:32.196Z,-0.25
2018-01-14T04:08:32.724Z,-0.2
2018-01-14T04:09:32.156Z,-0.2
2018-01-14T04:10:32.410Z,-0.22
2018-01-14T04:11:32.408Z,-0.19
2018-01-14T04:12:32.099Z,-0.22
2018-01-14T04:13:32.363Z,-0.18
2018-01-14T04:14:32.351Z,-0.31
2018-01-14T04:15:32.041Z,-0.2
2018-01-14T04:16:32.566Z,-0.19
2018-01-14T04:17:32.324Z,-0.25
2018-01-14T04:18:32.529Z,-0.2
2018-01-14T04:19:32.519Z,-0.27
2018-01-14T04:20:31.948Z,-0.16
2018-01-14T04:21:32.204Z,-0.22
2018-01-14T04:22:31.910Z,-0.25
2018-01-14T04:23:31.895Z,-0.19
2018-01-14T04:24:32.152Z,-0.19
2018-01-14T04:25:32.141Z,-0.09
2018-01-14T04:26:32.379Z,-0.15
2018-01-14T04:27:31.843Z,-0.15
2018-01-14T04:28:32.084Z,-0.13
2018-01-14T04:29:32.072Z,-0.23
2018-01-14T04:30:31.762Z,-0.16
2018-01-14T04:31:32.014Z,-0.19
2018-01-14T04:32:31.999Z,-0.25
2018-01-14T04:33:31.985Z,-0.2
2018-01-14T04:34:31.684Z,-0.16
2018-01-14T04:35:31.668Z,-0.18
2018-01-14T04:36:31.929Z,-0.22
2018-01-14T04:37:31.631Z,-0.2
2018-01-14T04:38:32.166Z,-0.2
2018-01-14T04:39:31.878Z,-0.19
2018-01-14T04:40:32.114Z,-0.23
2018-01-14T04:41:31.825Z,-0.28
2018-01-14T04:42:31.824Z,-0.22
2018-01-14T04:43:31.789Z,-0.22
2018-01-14T04:44:31.788Z,-0.19
2018-01-14T04:45:31.749Z,-0.2
2018-01-14T04:46:31.999Z,-0.27
2018-01-14T04:47:31.995Z,-0.13
2018-01-14T04:48:31.692Z,-0.19
2018-01-14T04:49:31.691Z,-0.25
2018-01-14T04:50:31.657Z,-0.15
2018-01-14T04:51:31.644Z,-0.16
2018-01-14T04:52:31.367Z,-0.18
2018-01-14T04:53:31.332Z,-0.16
2018-01-14T04:54:31.585Z,-0.22
2018-01-14T04:55:31.295Z,-0.25
2018-01-14T04:56:31.543Z,-0.28
2018-01-14T04:57:31.588Z,-0.27
2018-01-14T04:58:31.516Z,-0.28
2018-01-14T04:59:31.491Z,-0.22
2018-01-14T05:00:31.218Z,-0.25
2018-01-14T05:01:31.454Z,-0.23
2018-01-14T05:02:31.165Z,-0.1
2018-01-14T05:03:31.430Z,-0.18
2018-01-14T05:04:31.408Z,-0.18
2018-01-14T05:05:31.388Z,-0.1
2018-01-14T05:06:31.361Z,-0.12
2018-01-14T05:07:31.093Z,-0.1
2018-01-14T05:08:31.053Z,-0.13
2018-01-14T05:09:31.034Z,-0.07
2018-01-14T05:10:31.044Z,-0.13
2018-01-14T05:11:31.003Z,-0.07
2018-01-14T05:12:30.976Z,-0.09
2018-01-14T05:13:31.233Z,-0.1
2018-01-14T05:14:30.939Z,-0.1
2018-01-14T05:15:31.191Z,-0.09
2018-01-14T05:16:31.185Z,-0.09
2018-01-14T05:17:30.884Z,-0.15
2018-01-14T05:18:30.885Z,-0.13
2018-01-14T05:19:31.121Z,-0.1
2018-01-14T05:20:31.102Z,-0.13
2018-01-14T05:21:31.358Z,-0.07
2018-01-14T05:22:31.072Z,-0.1
2018-01-14T05:23:31.042Z,-0.15
2018-01-14T05:24:31.023Z,-0.2
2018-01-14T05:25:30.734Z,-0.09
2018-01-14T05:26:30.714Z,-0.1
2018-01-14T05:27:30.699Z,-0.18
2018-01-14T05:28:30.950Z,-0.27
2018-01-14T05:29:30.953Z,-0.23
2018-01-14T05:30:30.912Z,-0.23
2018-01-14T05:31:30.905Z,-0.31
2018-01-14T05:32:30.876Z,-0.34
2018-01-14T05:33:30.586Z,-0.23
2018-01-14T05:34:30.565Z,-0.22
2018-01-14T05:35:30.843Z,-0.27
2018-01-14T05:36:30.825Z,-0.27
2018-01-14T05:37:30.513Z,-0.28
2018-01-14T05:38:30.770Z,-0.27
2018-01-14T05:39:30.743Z,-0.28
2018-01-14T05:40:30.454Z,-0.34
2018-01-14T05:41:30.981Z,-0.31
2018-01-14T05:42:30.692Z,-0.23
2018-01-14T05:43:30.984Z,-0.28
2018-01-14T05:44:30.382Z,-0.31
2018-01-14T05:45:30.968Z,-0.36
2018-01-14T05:46:30.614Z,-0.22
2018-01-14T05:47:30.620Z,-0.3
2018-01-14T05:48:30.319Z,-0.28
2018-01-14T05:49:30.557Z,-0.3
2018-01-14T05:50:30.536Z,-0.23
2018-01-14T05:51:30.517Z,-0.34
2018-01-14T05:52:30.228Z,-0.41
2018-01-14T05:53:30.212Z,-0.33
2018-01-14T05:54:30.208Z,-0.31
2018-01-14T05:55:30.214Z,-0.37
2018-01-14T05:56:30.158Z,-0.28
2018-01-14T05:57:30.694Z,-0.34
2018-01-14T05:58:30.389Z,-0.31
2018-01-14T05:59:30.364Z,-0.28
2018-01-14T06:00:30.347Z,-0.31
2018-01-14T06:01:30.085Z,-0.33
2018-01-14T06:02:30.321Z,-0.36
2018-01-14T06:03:30.299Z,-0.31
2018-01-14T06:04:30.008Z,-0.34
2018-01-14T06:05:29.984Z,-0.27
2018-01-14T06:06:30.521Z,-0.31
2018-01-14T06:07:29.953Z,-0.25
2018-01-14T06:08:29.932Z,-0.38
2018-01-14T06:09:29.921Z,-0.38
2018-01-14T06:10:29.891Z,-0.38
2018-01-14T06:11:30.152Z,-0.33
2018-01-14T06:12:30.144Z,-0.31
2018-01-14T06:13:30.105Z,-0.33
2018-01-14T06:14:29.823Z,-0.43
2018-01-14T06:15:30.067Z,-0.33
2018-01-14T06:16:30.070Z,-0.33
2018-01-14T06:17:30.035Z,-0.37
2018-01-14T06:18:30.012Z,-0.33
2018-01-14T06:19:29.994Z,-0.33
2018-01-14T06:20:30.248Z,-0.34
2018-01-14T06:21:29.684Z,-0.31
2018-01-14T06:22:30.210Z,-0.36
2018-01-14T06:23:30.187Z,-0.37
2018-01-14T06:24:29.909Z,-0.36
2018-01-14T06:25:29.656Z,-0.3
2018-01-14T06:26:29.868Z,-0.34
2018-01-14T06:27:29.573Z,-0.28
2018-01-14T06:28:30.104Z,-0.37
2018-01-14T06:29:30.089Z,-0.28
2018-01-14T06:30:29.788Z,-0.3
2018-01-14T06:31:29.768Z,-0.34
2018-01-14T06:32:29.483Z,-0.4
2018-01-14T06:33:30.005Z,-0.38
2018-01-14T06:34:29.712Z,-0.38
2018-01-14T06:35:29.976Z,-0.34
2018-01-14T06:36:29.682Z,-0.45
2018-01-14T06:37:29.651Z,-0.33
2018-01-14T06:38:29.649Z,-0.33
2018-01-14T06:39:29.911Z,-0.34
2018-01-14T06:40:29.598Z,-0.36
2018-01-14T06:41:29.606Z,-0.34
2018-01-14T06:42:29.844Z,-0.31
2018-01-14T06:43:29.821Z,-0.4
2018-01-14T06:44:29.592Z,-0.37
2018-01-14T06:45:29.232Z,-0.36
2018-01-14T06:46:29.498Z,-0.33
2018-01-14T06:47:29.741Z,-0.37
2018-01-14T06:48:29.719Z,-0.36
2018-01-14T06:49:29.434Z,-0.36
2018-01-14T06:50:29.415Z,-0.33
2018-01-14T06:51:29.390Z,-0.33
2018-01-14T06:52:29.101Z,-0.27
2018-01-14T06:53:29.354Z,-0.25
2018-01-14T06:54:29.334Z,-0.33
2018-01-14T06:55:30.605Z,-0.36
2018-01-14T06:56:29.305Z,-0.36
2018-01-14T06:57:29.279Z,-0.33
2018-01-14T06:58:29.535Z,-0.34
2018-01-14T06:59:29.242Z,-0.36
2018-01-14T07:00:29.226Z,-0.33
2018-01-14T07:01:29.212Z,-0.37
2018-01-14T07:02:29.183Z,-0.23
2018-01-14T07:03:29.165Z,-0.34
2018-01-14T07:04:29.149Z,-0.28
2018-01-14T07:05:29.416Z,-0.28
2018-01-14T07:06:29.107Z,-0.25
2018-01-14T07:07:28.838Z,-0.22
2018-01-14T07:08:29.339Z,-0.27
2018-01-14T07:09:29.054Z,-0.3
2018-01-14T07:10:28.764Z,-0.28
2018-01-14T07:11:29.042Z,-0.27
2018-01-14T07:12:29.266Z,-0.3
2018-01-14T07:13:29.252Z,-0.27
2018-01-14T07:14:28.688Z,-0.34
2018-01-14T07:15:29.226Z,-0.28
2018-01-14T07:16:28.937Z,-0.3
2018-01-14T07:17:28.943Z,-0.33
2018-01-14T07:18:28.912Z,-0.34
2018-01-14T07:19:28.863Z,-0.36
2018-01-14T07:20:29.115Z,-0.38
2018-01-14T07:21:28.826Z,-0.3
2018-01-14T07:22:28.808Z,-0.36
2018-01-14T07:23:28.835Z,-0.3
2018-01-14T07:24:28.786Z,-0.38
2018-01-14T07:25:28.483Z,-0.28
2018-01-14T07:26:29.029Z,-0.45
2018-01-14T07:27:28.981Z,-0.4
2018-01-14T07:28:28.428Z,-0.36
2018-01-14T07:29:28.427Z,-0.36
2018-01-14T07:30:28.409Z,-0.41
2018-01-14T07:31:28.639Z,-0.43
2018-01-14T07:32:28.350Z,-0.4
2018-01-14T07:33:28.330Z,-0.4
2018-01-14T07:34:28.312Z,-0.34
2018-01-14T07:35:28.309Z,-0.43
2018-01-14T07:36:28.548Z,-0.38
2018-01-14T07:37:28.256Z,-0.36
2018-01-14T07:38:28.251Z,-0.28
2018-01-14T07:39:28.224Z,-0.31
2018-01-14T07:40:28.491Z,-0.3
2018-01-14T07:41:28.182Z,-0.34
2018-01-14T07:42:28.158Z,-0.41
2018-01-14T07:43:28.145Z,-0.38
2018-01-14T07:44:28.146Z,-0.36
2018-01-14T07:45:28.377Z,-0.38
2018-01-14T07:46:28.363Z,-0.4
2018-01-14T07:47:28.068Z,-0.34
2018-01-14T07:48:28.062Z,-0.45
2018-01-14T07:49:28.027Z,-0.4
2018-01-14T07:50:28.030Z,-0.46
2018-01-14T07:51:27.993Z,-0.4
2018-01-14T07:52:27.974Z,-0.36
2018-01-14T07:53:27.960Z,-0.38
2018-01-14T07:54:27.965Z,-0.41
2018-01-14T07:55:27.917Z,-0.28
2018-01-14T07:56:27.901Z,-0.31
2018-01-14T07:57:28.147Z,-0.33
2018-01-14T07:58:28.134Z,-0.38
2018-01-14T07:59:27.842Z,-0.4
2018-01-14T08:00:28.090Z,-0.4
2018-01-14T08:01:28.073Z,-0.51
2018-01-14T08:02:28.063Z,-0.55
2018-01-14T08:03:27.815Z,-0.45
2018-01-14T08:04:28.019Z,-0.51
2018-01-14T08:05:28.032Z,-0.55
2018-01-14T08:06:27.991Z,-0.56
2018-01-14T08:07:27.702Z,-0.52
2018-01-14T08:08:27.672Z,-0.52
2018-01-14T08:09:27.926Z,-0.62
2018-01-14T08:10:27.926Z,-0.62
2018-01-14T08:11:28.175Z,-0.67
2018-01-14T08:12:27.598Z,-0.62
2018-01-14T08:13:27.585Z,-0.69
2018-01-14T08:14:27.561Z,-0.74
2018-01-14T08:15:27.553Z,-0.64
2018-01-14T08:16:27.521Z,-0.66
2018-01-14T08:17:27.794Z,-0.64
2018-01-14T08:18:27.483Z,-0.69
2018-01-14T08:19:27.465Z,-0.7
2018-01-14T08:20:27.449Z,-0.7
2018-01-14T08:21:27.464Z,-0.72
2018-01-14T08:22:27.409Z,-0.67
2018-01-14T08:23:27.392Z,-0.7
2018-01-14T08:24:27.645Z,-0.74
2018-01-14T08:25:27.891Z,-0.72
2018-01-14T08:26:27.345Z,-0.64
2018-01-14T08:27:27.586Z,-0.66
2018-01-14T08:28:27.568Z,-0.66
2018-01-14T08:29:27.546Z,-0.73
2018-01-14T08:30:27.270Z,-0.62
2018-01-14T08:31:27.507Z,-0.72
2018-01-14T08:32:27.489Z,-0.56
2018-01-14T08:33:27.430Z,-0.58
2018-01-14T08:34:27.491Z,-0.56
2018-01-14T08:35:27.162Z,-0.55
2018-01-14T08:36:27.442Z,-0.52
2018-01-14T08:37:27.396Z,-0.49
2018-01-14T08:38:27.110Z,-0.34
2018-01-14T08:39:27.089Z,-0.34
2018-01-14T08:40:27.338Z,-0.25
2018-01-14T08:41:27.587Z,-0.27
2018-01-14T08:42:27.032Z,-0.22
2018-01-14T08:43:27.016Z,-0.2
2018-01-14T08:44:27.273Z,-0.18
2018-01-14T08:45:27.078Z,-0.19
2018-01-14T08:46:26.956Z,-0.09
2018-01-14T08:47:27.205Z,-0.19
2018-01-14T08:48:28.398Z,0.02
2018-01-14T08:49:27.219Z,0.02
2018-01-14T08:50:26.885Z,-0.02
2018-01-14T08:51:27.147Z,0.13
2018-01-14T08:52:26.851Z,0.03
2018-01-14T08:53:27.096Z,0.1
2018-01-14T08:54:27.348Z,0.16
2018-01-14T08:55:27.073Z,0.2
2018-01-14T08:56:27.310Z,0.17
2018-01-14T08:57:26.752Z,0.17
2018-01-14T08:58:27.029Z,0.23
2018-01-14T08:59:26.983Z,0.37
2018-01-14T09:00:27.019Z,0.38
2018-01-14T09:01:26.680Z,0.47
2018-01-14T09:02:27.222Z,0.39
2018-01-14T09:03:26.909Z,0.35
2018-01-14T09:04:26.647Z,0.32
2018-01-14T09:05:26.878Z,0.31
2018-01-14T09:06:26.587Z,0.26
2018-01-14T09:07:26.594Z,0.32
2018-01-14T09:08:26.821Z,0.27
2018-01-14T09:09:26.548Z,0.16
2018-01-14T09:10:26.512Z,0.2
2018-01-14T09:11:26.769Z,0.28
2018-01-14T09:12:26.744Z,0.34
2018-01-14T09:13:26.468Z,0.42
2018-01-14T09:14:26.437Z,0.38
2018-01-14T09:15:26.418Z,0.42
2018-01-14T09:16:26.401Z,0.52
2018-01-14T09:17:26.653Z,0.47
2018-01-14T09:18:26.637Z,0.52
2018-01-14T09:19:26.368Z,0.53
2018-01-14T09:20:26.596Z,0.56
2018-01-14T09:21:26.306Z,0.5
2018-01-14T09:22:26.561Z,0.5
2018-01-14T09:23:26.563Z,0.5
2018-01-14T09:24:26.525Z,0.5
2018-01-14T09:25:26.525Z,0.53
2018-01-14T09:26:26.222Z,0.57
2018-01-14T09:27:26.484Z,0.53
2018-01-14T09:28:26.179Z,0.57
2018-01-14T09:29:26.436Z,0.52
2018-01-14T09:30:26.685Z,0.63
2018-01-14T09:31:26.399Z,0.63
2018-01-14T09:32:26.377Z,0.63
2018-01-14T09:33:26.359Z,0.57
2018-01-14T09:34:26.390Z,0.63
2018-01-14T09:35:26.400Z,0.67
2018-01-14T09:36:26.034Z,0.63
2018-01-14T09:37:26.019Z,0.61
2018-01-14T09:38:26.008Z,0.63
2018-01-14T09:39:25.979Z,0.67
2018-01-14T09:40:25.990Z,0.76
2018-01-14T09:41:25.944Z,0.72
2018-01-14T09:42:26.194Z,0.67
2018-01-14T09:43:26.197Z,0.66
2018-01-14T09:44:26.160Z,0.72
2018-01-14T09:45:26.142Z,0.81
2018-01-14T09:46:26.134Z,0.86
2018-01-14T09:47:25.836Z,0.75
2018-01-14T09:48:26.099Z,0.84
2018-01-14T09:49:26.074Z,0.81
2018-01-14T09:50:25.781Z,0.79
2018-01-14T09:51:25.765Z,0.76
2018-01-14T09:52:25.750Z,0.97
2018-01-14T09:53:25.996Z,0.94
2018-01-14T09:54:26.261Z,0.9
2018-01-14T09:55:26.000Z,0.94
2018-01-14T09:56:25.685Z,0.96
2018-01-14T09:57:25.926Z,1.07
2018-01-14T09:58:25.635Z,1.14
2018-01-14T09:59:25.619Z,1.08
2018-01-14T10:00:25.874Z,1.11
2018-01-14T10:01:25.613Z,1.15
2018-01-14T10:02:25.835Z,1.18
2018-01-14T10:03:26.107Z,1.12
2018-01-14T10:04:25.828Z,1.2
2018-01-14T10:05:25.516Z,1.21
2018-01-14T10:06:25.493Z,1.24
2018-01-14T10:07:25.498Z,1.22
2018-01-14T10:08:25.458Z,1.21
2018-01-14T10:09:25.450Z,1.28
2018-01-14T10:10:25.423Z,1.28
2018-01-14T10:11:25.413Z,1.29
2018-01-14T10:12:25.388Z,1.33
2018-01-14T10:13:25.381Z,1.32
2018-01-14T10:14:25.366Z,1.3
2018-01-14T10:15:25.629Z,1.32
2018-01-14T10:16:25.318Z,1.28
2018-01-14T10:17:25.299Z,1.26
2018-01-14T10:18:25.560Z,1.29
2018-01-14T10:19:25.536Z,1.38
2018-01-14T10:20:25.516Z,1.29
2018-01-14T10:21:25.516Z,1.4
2018-01-14T10:22:25.211Z,1.3
2018-01-14T10:23:25.193Z,1.36
2018-01-14T10:24:25.449Z,1.42
2018-01-14T10:25:25.711Z,1.32
2018-01-14T10:26:25.141Z,1.39
2018-01-14T10:27:25.132Z,1.33
2018-01-14T10:28:25.378Z,1.33
2018-01-14T10:29:25.356Z,1.2
2018-01-14T10:30:25.610Z,1.24
2018-01-14T10:31:25.327Z,1.24
2018-01-14T10:32:25.308Z,1.18
2018-01-14T10:33:25.081Z,1.21
2018-01-14T10:34:25.016Z,1.21
2018-01-14T10:35:25.253Z,1.18
2018-01-14T10:36:24.969Z,1.21
2018-01-14T10:37:25.217Z,1.18
2018-01-14T10:38:24.933Z,1.15
2018-01-14T10:39:25.183Z,1.21
2018-01-14T10:40:24.911Z,1.22
2018-01-14T10:41:25.147Z,1.26
2018-01-14T10:42:24.857Z,1.32
2018-01-14T10:43:24.841Z,1.26
2018-01-14T10:44:25.111Z,1.32
2018-01-14T10:45:25.103Z,1.35
2018-01-14T10:46:25.061Z,1.29
2018-01-14T10:47:25.061Z,1.44
2018-01-14T10:48:24.783Z,1.33
2018-01-14T10:49:25.042Z,1.48
2018-01-14T10:50:24.992Z,1.47
2018-01-14T10:51:25.180Z,1.51
2018-01-14T10:52:24.991Z,1.48
2018-01-14T10:53:24.664Z,1.39
2018-01-14T10:54:24.989Z,1.36
2018-01-14T10:55:24.627Z,1.33
2018-01-14T10:56:24.615Z,1.36
2018-01-14T10:57:24.878Z,1.39
2018-01-14T10:58:24.600Z,1.42
2018-01-14T10:59:24.894Z,1.51
2018-01-14T11:00:24.568Z,1.5
2018-01-14T11:01:24.526Z,1.42
2018-01-14T11:02:24.780Z,1.47
2018-01-14T11:03:24.761Z,1.58
2018-01-14T11:04:24.746Z,1.46
2018-01-14T11:05:24.727Z,1.53
2018-01-14T11:06:24.706Z,1.57
2018-01-14T11:07:24.419Z,1.57
2018-01-14T11:08:24.678Z,1.57
2018-01-14T11:09:24.387Z,1.58
2018-01-14T11:10:24.384Z,1.58
2018-01-14T11:11:24.374Z,1.57
2018-01-14T11:12:24.875Z,1.69
2018-01-14T11:13:24.326Z,1.65
2018-01-14T11:14:24.298Z,1.64
2018-01-14T11:15:24.552Z,1.64
2018-01-14T11:16:24.536Z,1.56
2018-01-14T11:17:24.527Z,1.57
2018-01-14T11:18:24.241Z,1.65
2018-01-14T11:19:24.483Z,1.5
2018-01-14T11:20:24.195Z,1.48
2018-01-14T11:21:24.715Z,1.4
2018-01-14T11:22:24.705Z,1.51
2018-01-14T11:23:24.146Z,1.51
2018-01-14T11:24:24.398Z,1.46
2018-01-14T11:25:24.378Z,1.36
2018-01-14T11:26:24.671Z,1.35
2018-01-14T11:27:24.348Z,1.32
2018-01-14T11:28:24.343Z,1.15
2018-01-14T11:29:24.040Z,1.21
2018-01-14T11:30:24.027Z,1.17
2018-01-14T11:31:24.291Z,1.1
2018-01-14T11:32:24.273Z,1.07
2018-01-14T11:33:23.996Z,1.07
2018-01-14T11:34:24.222Z,0.97
2018-01-14T11:35:24.478Z,0.94
2018-01-14T11:36:24.188Z,0.86
2018-01-14T11:37:24.169Z,0.86
2018-01-14T11:38:23.885Z,0.78
2018-01-14T11:39:24.160Z,0.72
2018-01-14T11:41:24.105Z,0.78
2018-01-14T11:42:24.079Z,0.67
2018-01-14T11:43:24.333Z,0.57
2018-01-14T11:44:24.053Z,0.47
2018-01-14T11:45:24.028Z,0.53
2018-01-14T11:46:23.741Z,0.52
2018-01-14T11:47:24.274Z,0.53
2018-01-14T11:48:23.991Z,0.63
2018-01-14T11:49:23.962Z,0.61
2018-01-14T11:50:23.666Z,0.66
2018-01-14T11:51:23.647Z,0.78
2018-01-14T11:52:24.181Z,0.79
2018-01-14T11:53:23.621Z,0.81
2018-01-14T11:54:23.863Z,0.94
2018-01-14T11:55:23.847Z,0.97
2018-01-14T11:56:23.563Z,1
2018-01-14T11:57:23.812Z,1.04
2018-01-14T11:58:23.793Z,1.07
2018-01-14T11:59:24.045Z,1.07
2018-01-14T12:00:23.490Z,1.1
2018-01-14T12:01:24.026Z,1.1
2018-01-14T12:02:23.465Z,1.11
2018-01-14T12:03:23.976Z,1.07
2018-01-14T12:04:23.688Z,1.08
2018-01-14T12:05:23.687Z,1.04
2018-01-14T12:06:23.664Z,1.14
2018-01-14T12:07:23.632Z,1.2
2018-01-14T12:08:23.889Z,1.17
2018-01-14T12:09:23.596Z,1.22
2018-01-14T12:10:23.582Z,1.28
2018-01-14T12:11:23.304Z,1.39
2018-01-14T12:12:23.271Z,1.39
2018-01-14T12:13:23.265Z,1.48
2018-01-14T12:14:23.539Z,1.44
2018-01-14T12:15:23.497Z,1.42
2018-01-14T12:16:23.480Z,1.48
2018-01-14T12:17:23.456Z,1.56
2018-01-14T12:18:23.284Z,1.6
2018-01-14T12:19:23.428Z,1.56
2018-01-14T12:20:23.402Z,1.6
2018-01-14T12:21:23.114Z,1.6
2018-01-14T12:22:23.374Z,1.54
2018-01-14T12:23:23.623Z,1.42
2018-01-14T12:24:23.159Z,1.51
2018-01-14T12:25:23.318Z,1.47
2018-01-14T12:26:23.050Z,1.51
2018-01-14T12:27:23.037Z,1.38
2018-01-14T12:28:23.536Z,1.42
2018-01-14T12:29:22.975Z,1.35
2018-01-14T12:30:22.959Z,1.36
2018-01-14T12:31:23.220Z,1.47
2018-01-14T12:32:22.926Z,1.53
2018-01-14T12:33:23.199Z,1.48
2018-01-14T12:34:23.158Z,1.51
2018-01-14T12:35:22.905Z,1.6
2018-01-14T12:36:23.394Z,1.64
2018-01-14T12:37:22.856Z,1.66
2018-01-14T12:38:22.820Z,1.78
2018-01-14T12:39:23.110Z,1.74
2018-01-14T12:40:22.785Z,1.72
2018-01-14T12:41:23.307Z,1.86
2018-01-14T12:42:23.226Z,1.84
2018-01-14T12:43:22.736Z,1.86
2018-01-14T12:44:22.735Z,1.89
2018-01-14T12:45:22.968Z,1.83
2018-01-14T12:46:22.682Z,1.92
2018-01-14T12:47:22.662Z,1.83
2018-01-14T12:48:22.934Z,1.84
2018-01-14T12:49:22.902Z,1.84
2018-01-14T12:50:22.617Z,1.84
2018-01-14T12:51:22.873Z,1.84
2018-01-14T12:52:23.119Z,1.83
2018-01-14T12:53:22.561Z,1.79
2018-01-14T12:54:22.812Z,1.83
2018-01-14T12:55:22.526Z,1.72
2018-01-14T12:56:23.071Z,1.71
2018-01-14T12:57:22.499Z,1.78
2018-01-14T12:58:22.744Z,1.65
2018-01-14T12:59:22.727Z,1.64
2018-01-14T13:00:22.980Z,1.64
2018-01-14T13:01:22.435Z,1.64
2018-01-14T13:02:22.675Z,1.6
2018-01-14T13:03:22.672Z,1.69
2018-01-14T13:04:22.374Z,1.53
2018-01-14T13:05:22.354Z,1.54